createdAt,value
2019-05-30T00:03:25.694Z,61.11
2019-05-30T00:09:34.279Z,61.64
2019-05-30T00:15:40.335Z,61.98
2019-05-30T00:21:46.125Z,60.90
2019-05-30T00:27:51.945Z,58.03
2019-05-30T00:33:59.606Z,54.79
2019-05-30T00:40:06.161Z,53.38
2019-05-30T00:46:11.990Z,52.54
2019-05-30T00:52:18.310Z,52.13
2019-05-30T00:58:24.110Z,51.92
2019-05-30T01:04:30.061Z,51.94
2019-05-30T01:10:36.014Z,52.15
2019-05-30T01:16:42.839Z,52.29
2019-05-30T01:22:48.960Z,52.59
2019-05-30T01:28:54.877Z,52.77
2019-05-30T01:35:02.117Z,52.99
2019-05-30T01:41:08.493Z,53.04
2019-05-30T01:47:14.335Z,53.75
2019-05-30T01:53:20.428Z,53.90
2019-05-30T01:59:26.615Z,54.08
2019-05-30T02:05:32.619Z,54.08
2019-05-30T02:11:39.001Z,53.86
2019-05-30T02:17:45.142Z,53.68
2019-05-30T02:23:50.973Z,53.82
2019-05-30T02:29:56.839Z,53.50
2019-05-30T02:36:04.005Z,53.48
2019-05-30T02:42:11.684Z,53.43
2019-05-30T02:48:17.850Z,53.38
2019-05-30T02:54:23.910Z,53.35
2019-05-30T03:00:37.755Z,53.42
2019-05-30T03:06:44.123Z,53.61
2019-05-30T03:12:49.917Z,53.80
2019-05-30T03:18:55.696Z,53.89
2019-05-30T03:25:02.992Z,53.87
2019-05-30T03:31:21.902Z,54.27
2019-05-30T03:37:27.847Z,54.68
2019-05-30T03:43:25.713Z,54.66
2019-05-30T03:49:35.942Z,54.92
2019-05-30T03:55:44.406Z,55.61
2019-05-30T04:02:02.322Z,57.75
2019-05-30T04:08:12.371Z,57.51
2019-05-30T04:14:24.129Z,57.12
2019-05-30T04:20:30.544Z,57.28
2019-05-30T04:26:36.328Z,57.05
2019-05-30T04:32:42.599Z,56.78
2019-05-30T04:38:48.405Z,56.49
2019-05-30T04:44:54.389Z,56.26
2019-05-30T04:51:00.145Z,56.03
2019-05-30T04:57:06.221Z,55.66
2019-05-30T05:03:13.056Z,55.48
2019-05-30T05:09:20.291Z,55.30
2019-05-30T05:15:26.859Z,55.00
2019-05-30T05:21:32.823Z,54.75
2019-05-30T05:27:38.576Z,54.70
2019-05-30T05:33:56.133Z,54.58
2019-05-30T05:39:52.029Z,54.35
2019-05-30T05:45:58.152Z,54.39
2019-05-30T05:52:04.025Z,54.23
2019-05-30T05:58:09.773Z,54.33
2019-05-30T06:04:17.076Z,54.26
2019-05-30T06:10:24.281Z,54.24
2019-05-30T06:16:30.142Z,54.30
2019-05-30T06:22:36.155Z,54.36
2019-05-30T06:28:42.106Z,54.40
2019-05-30T06:34:49.099Z,54.38
2019-05-30T06:40:55.119Z,54.78
2019-05-30T06:47:01.090Z,56.48
2019-05-30T06:53:07.366Z,56.75
2019-05-30T06:59:13.175Z,57.17
2019-05-30T07:05:19.877Z,57.70
2019-05-30T07:11:26.807Z,58.67
2019-05-30T07:17:33.649Z,59.29
2019-05-30T07:23:40.042Z,60.69
2019-05-30T07:29:45.880Z,61.89
2019-05-30T07:35:53.193Z,64.13
2019-05-30T07:42:06.172Z,65.39
2019-05-30T07:48:06.602Z,65.97
2019-05-30T07:54:12.852Z,66.51
2019-05-30T08:00:27.284Z,67.53
2019-05-30T08:06:33.882Z,67.71
2019-05-30T08:12:40.014Z,68.03
2019-05-30T08:18:45.960Z,67.94
2019-05-30T08:24:51.888Z,68.00
2019-05-30T08:30:57.916Z,68.10
2019-05-30T08:37:03.775Z,67.55
2019-05-30T08:43:09.787Z,66.66
2019-05-30T08:49:17.020Z,65.81
2019-05-30T08:55:23.296Z,64.97
2019-05-30T09:01:29.251Z,64.13
2019-05-30T09:07:36.388Z,63.04
2019-05-30T09:13:42.728Z,61.95
2019-05-30T09:19:48.498Z,60.62
2019-05-30T09:25:54.929Z,60.00
2019-05-30T09:32:01.124Z,59.39
2019-05-30T09:38:07.282Z,59.68
2019-05-30T09:44:13.254Z,59.97
2019-05-30T09:50:19.674Z,60.46
2019-05-30T09:56:25.875Z,61.24
2019-05-30T10:02:31.657Z,61.76
2019-05-30T10:08:37.589Z,62.08
2019-05-30T10:14:45.179Z,61.89
2019-05-30T10:20:51.994Z,61.45
2019-05-30T10:26:58.793Z,60.25
2019-05-30T10:33:05.094Z,59.90
2019-05-30T10:39:11.012Z,59.53
2019-05-30T10:45:17.553Z,59.47
2019-05-30T10:51:23.627Z,59.16
2019-05-30T10:57:29.404Z,59.25
2019-05-30T11:03:35.235Z,59.29
2019-05-30T11:09:48.706Z,59.14
2019-05-30T11:15:55.501Z,58.79
2019-05-30T11:22:01.365Z,58.26
2019-05-30T11:28:07.951Z,57.88
2019-05-30T11:34:13.798Z,57.70
2019-05-30T11:40:21.178Z,57.21
2019-05-30T11:46:28.817Z,57.24
2019-05-30T11:52:34.854Z,56.92
2019-05-30T11:58:40.643Z,56.85
2019-05-30T12:04:46.393Z,57.14
2019-05-30T12:10:53.105Z,57.32
2019-05-30T12:16:59.500Z,57.51
2019-05-30T12:23:05.956Z,57.81
2019-05-30T12:29:11.852Z,57.82
2019-05-30T12:35:18.339Z,57.72
2019-05-30T12:41:24.733Z,57.94
2019-05-30T12:47:31.161Z,58.44
2019-05-30T12:53:37.108Z,58.70
2019-05-30T12:59:43.543Z,58.97
2019-05-30T13:05:49.419Z,59.30
2019-05-30T13:11:56.353Z,61.09
2019-05-30T13:18:03.071Z,61.47
2019-05-30T13:24:09.234Z,61.40
2019-05-30T13:30:16.516Z,61.59
2019-05-30T13:36:22.451Z,61.49
2019-05-30T13:42:28.326Z,61.62
2019-05-30T13:48:35.835Z,61.55
2019-05-30T13:54:41.662Z,61.61
2019-05-30T14:00:47.711Z,61.34
2019-05-30T14:06:53.952Z,60.90
2019-05-30T14:13:00.773Z,60.45
2019-05-30T14:19:09.801Z,60.17
2019-05-30T14:25:15.348Z,59.91
2019-05-30T14:31:21.361Z,59.28
2019-05-30T14:37:27.251Z,58.42
2019-05-30T14:43:33.429Z,57.36
2019-05-30T14:49:39.378Z,56.87
2019-05-30T14:55:46.073Z,55.52
2019-05-30T15:01:52.861Z,54.67
2019-05-30T15:07:59.251Z,54.13
2019-05-30T15:14:06.670Z,54.04
2019-05-30T15:20:15.444Z,54.07
2019-05-30T15:26:22.260Z,54.10
2019-05-30T15:32:28.192Z,53.28
2019-05-30T15:38:34.889Z,53.36
2019-05-30T15:44:40.671Z,53.66
2019-05-30T15:50:46.831Z,54.07
2019-05-30T15:56:52.722Z,53.73
2019-05-30T16:02:59.008Z,53.74
2019-05-30T16:09:07.030Z,53.79
2019-05-30T16:15:15.530Z,53.60
2019-05-30T16:21:22.455Z,53.49
2019-05-30T16:27:31.097Z,53.67
2019-05-30T16:33:36.793Z,54.03
2019-05-30T16:39:43.200Z,53.69
2019-05-30T16:45:48.971Z,54.30
2019-05-30T16:51:55.130Z,55.01
2019-05-30T16:58:01.195Z,55.36
2019-05-30T17:04:07.233Z,55.64
2019-05-30T17:10:25.673Z,55.34
2019-05-30T17:16:22.191Z,54.76
2019-05-30T17:22:30.507Z,54.66
2019-05-30T17:28:35.900Z,54.46
2019-05-30T17:34:41.925Z,54.00
2019-05-30T17:40:49.695Z,54.06
2019-05-30T17:46:55.734Z,54.17
2019-05-30T17:53:01.845Z,54.47
2019-05-30T17:59:08.005Z,55.06
2019-05-30T18:05:15.158Z,55.32
2019-05-30T18:11:20.931Z,55.51
2019-05-30T18:17:27.236Z,55.70
2019-05-30T18:23:33.491Z,55.94
2019-05-30T18:29:39.369Z,56.06
2019-05-30T18:35:45.402Z,56.20
2019-05-30T18:41:51.450Z,56.34
2019-05-30T18:47:57.232Z,56.64
2019-05-30T18:54:03.286Z,56.79
2019-05-30T19:00:13.258Z,56.98
2019-05-30T19:06:18.365Z,57.03
2019-05-30T19:12:24.330Z,57.17
2019-05-30T19:18:31.507Z,57.15
2019-05-30T19:24:37.581Z,57.17
2019-05-30T19:30:43.634Z,57.35
2019-05-30T19:36:49.547Z,57.35
2019-05-30T19:42:55.469Z,57.50
2019-05-30T19:49:01.407Z,57.71
2019-05-30T19:55:07.942Z,57.98
2019-05-30T20:01:13.729Z,58.21
2019-05-30T20:07:19.938Z,58.36
2019-05-30T20:13:26.976Z,58.65
2019-05-30T20:19:33.490Z,58.80
2019-05-30T20:25:43.666Z,58.90
2019-05-30T20:31:47.145Z,59.25
2019-05-30T20:37:53.192Z,59.56
2019-05-30T20:43:59.378Z,59.98
2019-05-30T20:50:06.288Z,60.15
2019-05-30T20:56:12.405Z,60.21
2019-05-30T21:02:18.372Z,60.36
2019-05-30T21:08:25.199Z,60.56
2019-05-30T21:14:35.494Z,60.83
2019-05-30T21:20:42.167Z,60.44
2019-05-30T21:26:48.026Z,60.30
2019-05-30T21:32:54.039Z,60.32
2019-05-30T21:39:00.299Z,60.46
2019-05-30T21:45:06.993Z,60.36
2019-05-30T21:51:13.173Z,60.14
2019-05-30T21:57:19.086Z,60.19
2019-05-30T22:03:25.381Z,60.14
2019-05-30T22:09:31.417Z,60.07
2019-05-30T22:15:37.385Z,59.92
2019-05-30T22:21:44.188Z,59.77
2019-05-30T22:27:50.537Z,59.74
2019-05-30T22:33:56.753Z,59.66
2019-05-30T22:40:02.605Z,59.67
2019-05-30T22:46:08.530Z,59.62
2019-05-30T22:52:14.321Z,59.64
2019-05-30T22:58:20.309Z,59.55
2019-05-30T23:04:26.222Z,59.53
2019-05-30T23:10:32.155Z,59.68
2019-05-30T23:16:38.175Z,59.75
2019-05-30T23:22:44.199Z,59.93
2019-05-30T23:28:50.290Z,60.05
2019-05-30T23:34:56.383Z,60.23
2019-05-30T23:41:02.729Z,60.36
2019-05-30T23:47:08.504Z,60.50
2019-05-30T23:53:14.543Z,60.58
2019-05-30T23:59:20.465Z,60.66
